Latest Weather Observations for Oakey

IDQ60801

Issued at 10:02 pm EST Tuesday 28 February 2017 (issued every 30 minutes, with the page automatically refreshed every 10 minutes)

About weather observations | Map of weather stations | Latest weather observations for QLD | Other Formats
Station Details ID: 041359 Name: OAKEY AERO Lat: -27.40 Lon: 151.74 Height: 405.69 m
Data from the previous 72 hours. | See also: Recent months at Oakey
Date/Time
EST
Temp
°C
App
Temp
°C
Dew
Point
°C
Rel
Hum
%
Delta-T
°C
Wind Press
QNH
hPa
Press
MSL
hPa
Rain since
9am
mm
Dir  Spd
km/h
Gust
km/h
Spd
kts
Gust
kts
28/09:30pm 21.2 17.9 17.0 77 2.6 ENE 30 41 16 22 1018.5 1016.2 0.0
28/09:00pm 21.2 17.2 16.8 76 2.7 E 33 44 18 24 1018.3 1016.0 0.0
28/08:30pm 21.2 17.4 16.8 76 2.7 E 32 43 17 23 1018.2 1015.9 0.0
28/08:00pm 21.4 19.2 16.8 75 2.8 E 24 35 13 19 1017.8 1015.6 0.0
28/07:30pm 21.5 20.0 16.7 74 3.0 ESE 20 28 11 15 1017.8 1015.6 0.0
28/07:00pm 21.4 19.6 16.1 72 3.2 ESE 20 28 11 15 1017.3 1015.1 0.0
28/06:30pm 21.4 17.2 15.7 70 3.5 ESE 32 39 17 21 1017.2 1015.0 0.0
28/06:13pm 21.9 16.3 15.5 67 3.9 SE 39 52 21 28 1017.1 1014.9 0.0
28/06:04pm 22.4 19.1 16.0 67 3.9 SSE 28 46 15 25 1016.8 1014.6 0.0
28/06:00pm 22.3 19.3 15.9 67 3.9 SSE 26 33 14 18 1016.5 1014.3 0.0
28/05:30pm 23.9 20.1 13.7 53 6.1 SSE 26 35 14 19 1016.0 1013.7 0.0
28/05:00pm 24.4 22.0 15.3 57 5.6 SSW 22 30 12 16 1015.7 1013.4 0.0
28/04:30pm 25.5 21.9 14.3 50 6.8 S 26 33 14 18 1015.2 1013.0 0.0
28/04:13pm 25.5 21.6 14.3 50 6.8 S 28 39 15 21 1015.4 1013.2 0.0
28/04:00pm 27.8 26.9 11.4 36 9.5 ESE 7 13 4 7 1015.4 1013.2 0.0
28/03:30pm 28.1 26.5 11.6 36 9.7 NE 11 19 6 10 1014.8 1012.6 0.0
28/03:00pm 27.1 23.9 12.0 39 8.9 E 20 30 11 16 1015.3 1013.1 0.0
28/02:30pm 27.8 24.6 13.0 40 8.8 E 22 30 12 16 1015.6 1013.3 0.0
28/02:00pm 28.3 25.1 11.8 36 9.7 E 20 28 11 15 1015.7 1013.4 0.0
28/01:30pm 29.0 28.0 11.1 33 10.4 N 7 15 4 8 1015.9 1013.6 0.0
28/01:00pm 27.7 26.0 11.3 36 9.5 SE 11 17 6 9 1016.3 1014.0 0.0
28/12:30pm 27.5 26.4 11.9 38 9.2 S 9 17 5 9 1016.7 1014.5 0.0
28/12:00pm 27.2 26.1 12.0 38 8.9 S 9 19 5 10 1017.1 1014.9 0.0
28/11:30am 27.0 25.3 12.6 41 8.5 SE 13 17 7 9 1017.3 1015.1 0.0
28/11:00am 26.9 25.9 12.2 40 8.6 WSW 9 15 5 8 1017.7 1015.5 0.0
28/10:30am 26.6 26.5 14.0 46 7.6 S 7 15 4 8 1018.0 1015.8 0.0
28/10:00am 25.7 24.7 14.5 50 6.8 SSE 13 20 7 11 1018.3 1016.0 0.0
28/09:30am 24.8 25.6 14.9 54 6.0 NE 4 11 2 6 1018.5 1016.2 0.0
28/09:00am 22.6 21.8 13.9 58 5.2 SE 11 17 6 9 1018.7 1016.5 0.0
28/08:30am 21.8 21.1 14.2 62 4.5 SSE 11 15 6 8 1018.6 1016.3 0.0
28/08:00am 20.8 20.5 14.5 67 3.7 SE 9 11 5 6 1018.7 1016.5 0.0
28/07:30am 19.1 18.6 13.7 71 3.1 SSE 9 13 5 7 1018.5 1016.2 0.0
28/07:00am 17.0 16.8 13.1 78 2.2 SSE 6 9 3 5 1018.4 1016.1 0.0
28/06:30am 15.5 16.4 13.0 85 1.4 CALM 0 6 0 3 1018.4 1016.1 0.0
28/06:00am 14.8 15.7 12.8 88 1.1 CALM 0 0 0 0 1018.2 1015.9 0.0
28/05:30am 14.2 14.9 12.2 88 1.1 CALM 0 0 0 0 1017.8 1015.6 0.0
28/05:00am 14.0 14.8 12.4 90 0.9 CALM 0 0 0 0 1017.4 1015.2 0.0
28/04:30am 14.0 13.0 12.2 89 1.0 S 9 9 5 5 1017.2 1015.0 0.0
28/04:00am 14.3 12.9 12.3 88 1.1 SSE 11 15 6 8 1017.2 1015.0 0.0
28/03:30am 14.9 13.7 12.9 88 1.1 SE 11 15 6 8 1017.1 1014.9 0.0
28/03:00am 15.0 15.9 12.9 87 1.2 CALM 0 9 0 5 1017.3 1015.1 0.0
28/02:30am 15.3 16.2 12.8 85 1.4 CALM 0 0 0 0 1017.2 1015.0 0.0
28/02:00am 15.7 16.6 12.8 83 1.6 CALM 0 0 0 0 1017.6 1015.4 0.0
28/01:30am 16.4 17.4 13.3 82 1.8 CALM 0 6 0 3 1017.8 1015.6 0.0
28/01:00am 16.5 16.3 13.0 80 2.0 SSE 6 9 3 5 1018.3 1016.0 0.0
28/12:30am 17.3 16.0 13.6 79 2.1 ESE 13 15 7 8 1018.4 1016.1 0.0
28/12:00am 17.0 16.3 13.1 78 2.2 ESE 9 9 5 5 1018.7 1016.5 0.0
 
Date/Time
EST
Temp
°C
App
Temp
°C
Dew
Point
°C
Rel
Hum
%
Delta-T
°C
Wind Press
QNH
hPa
Press
MSL
hPa
Rain since
9am
mm
Dir  Spd
km/h
Gust
km/h
Spd
kts
Gust
kts
27/11:30pm 17.5 16.9 13.4 77 2.4 ESE 9 11 5 6 1018.9 1016.7 0.0
27/11:00pm 18.2 16.9 13.7 75 2.6 ESE 13 15 7 8 1019.1 1016.9 0.0
27/10:30pm 18.8 16.7 13.6 72 3.0 ESE 17 20 9 11 1019.0 1016.8 0.0
27/10:00pm 19.2 17.6 13.8 71 3.1 E 15 20 8 11 1019.1 1016.9 0.0
27/09:30pm 19.8 17.5 14.2 70 3.3 ESE 19 28 10 15 1019.0 1016.8 0.0
27/09:00pm 20.3 17.5 14.2 68 3.6 ESE 22 32 12 17 1018.9 1016.7 0.0
27/08:30pm 20.8 18.5 14.2 66 3.9 E 19 30 10 16 1018.9 1016.7 0.0
27/08:00pm 21.1 19.3 14.5 66 3.9 ESE 17 24 9 13 1018.7 1016.5 0.0
27/07:30pm 21.1 19.6 14.3 65 4.0 ESE 15 20 8 11 1018.4 1016.1 0.0
27/07:00pm 21.7 18.9 14.4 63 4.3 ESE 22 30 12 16 1018.2 1015.9 0.0
27/06:30pm 22.0 18.9 14.4 62 4.5 E 24 33 13 18 1017.9 1015.7 0.0
27/06:00pm 22.4 17.8 14.5 61 4.7 E 32 43 17 23 1017.5 1015.3 0.0
27/05:30pm 23.6 17.9 14.3 56 5.6 ESE 37 48 20 26 1017.1 1014.9 0.0
27/05:00pm 24.6 21.4 13.2 49 6.7 ESE 22 32 12 17 1017.0 1014.8 0.0
27/04:30pm 24.5 20.3 13.4 50 6.6 ESE 28 35 15 19 1016.3 1014.0 0.0
27/04:00pm 24.5 19.7 14.0 52 6.3 SE 32 41 17 22 1016.3 1014.0 0.0
27/03:30pm 26.1 22.3 13.6 46 7.5 ESE 26 33 14 18 1016.3 1014.0 0.0
27/03:00pm 27.1 24.5 12.0 39 8.9 ESE 17 26 9 14 1015.9 1013.6 0.0
27/02:30pm 28.3 26.6 12.6 38 9.3 SE 13 22 7 12 1016.2 1013.9 0.0
27/02:00pm 27.4 24.8 10.6 35 9.6 E 15 26 8 14 1016.3 1014.0 0.0
27/01:30pm 27.5 24.9 11.9 38 9.2 ENE 17 28 9 15 1016.8 1014.6 0.0
27/01:00pm 26.4 23.4 12.5 42 8.2 E 20 28 11 15 1017.3 1015.1 0.0
27/12:30pm 26.7 23.7 13.8 45 7.8 E 22 41 12 22 1017.9 1015.7 0.0
27/12:00pm 25.3 22.9 13.8 49 6.9 ESE 19 30 10 16 1018.5 1016.2 0.0
27/11:30am 25.6 22.3 14.1 49 6.9 E 24 35 13 19 1018.8 1016.6 0.0
27/11:00am 25.6 21.7 14.4 50 6.8 E 28 41 15 22 1019.1 1016.9 0.0
27/10:30am 24.5 20.6 14.3 53 6.1 E 28 39 15 21 1019.4 1017.2 0.0
27/10:00am 24.1 19.8 14.5 55 5.8 E 30 43 16 23 1019.8 1017.6 0.0
27/09:30am 23.4 18.3 13.8 54 5.7 E 33 43 18 23 1019.8 1017.6 0.0
27/09:00am 23.3 18.4 14.3 57 5.4 E 33 41 18 22 1019.6 1017.4 0.0
27/08:30am 22.2 19.1 14.6 62 4.6 SE 24 33 13 18 1019.3 1017.1 0.0
27/08:00am 21.9 19.7 14.8 64 4.3 ESE 20 30 11 16 1019.1 1016.9 0.0
27/07:30am 20.5 20.7 14.2 67 3.7 SSE 6 9 3 5 1019.0 1016.8 0.0
27/07:00am 19.2 19.3 14.0 72 3.0 S 6 7 3 4 1018.9 1016.7 0.0
27/06:30am 18.4 18.1 14.3 77 2.4 S 9 11 5 6 1018.8 1016.6 0.0
27/06:00am 16.7 15.8 13.8 83 1.7 SSE 11 13 6 7 1018.5 1016.2 0.0
27/05:30am 16.4 16.7 13.3 82 1.8 ESE 4 9 2 5 1017.8 1015.6 0.0
27/05:00am 16.8 16.1 13.3 80 2.0 SSE 9 13 5 7 1017.4 1015.2 0.0
27/04:30am 16.7 16.4 13.2 80 2.0 SE 7 9 4 5 1017.3 1015.1 0.0
27/04:00am 17.7 16.8 13.6 77 2.4 ENE 11 15 6 8 1017.2 1015.0 0.0
27/03:30am 18.0 16.7 13.7 76 2.5 ESE 13 15 7 8 1017.2 1015.0 0.0
27/03:00am 18.3 17.0 13.8 75 2.6 E 13 19 7 10 1017.3 1015.1 0.0
27/02:30am 18.7 16.7 14.0 74 2.7 ESE 17 20 9 11 1017.6 1015.4 0.0
27/02:00am 19.0 17.5 14.1 73 2.9 E 15 19 8 10 1018.0 1015.8 0.0
27/01:30am 19.2 17.2 14.0 72 3.0 E 17 24 9 13 1017.9 1015.7 0.0
27/01:00am 19.5 17.5 13.9 70 3.3 ESE 17 22 9 12 1017.9 1015.7 0.0
27/12:30am 19.8 17.3 14.0 69 3.4 ESE 20 28 11 15 1017.7 1015.5 0.0
27/12:00am 20.3 16.6 14.0 67 3.7 E 26 33 14 18 1018.2 1015.9 0.0
 
Date/Time
EST
Temp
°C
App
Temp
°C
Dew
Point
°C
Rel
Hum
%
Delta-T
°C
Wind Press
QNH
hPa
Press
MSL
hPa
Rain since
9am
mm
Dir  Spd
km/h
Gust
km/h
Spd
kts
Gust
kts
26/11:30pm 20.5 17.7 14.2 67 3.7 E 22 30 12 16 1018.4 1016.1 0.0
26/11:00pm 21.0 17.3 13.9 64 4.2 E 26 32 14 17 1018.4 1016.1 0.0
26/10:30pm 21.3 17.7 13.2 60 4.7 E 24 33 13 18 1018.0 1015.8 0.0
26/10:00pm 21.7 18.1 13.1 58 5.0 E 24 30 13 16 1018.0 1015.8 0.0
26/09:30pm 21.9 19.5 12.7 56 5.3 E 17 24 9 13 1018.4 1016.1 0.0
26/09:00pm 22.3 19.6 13.4 57 5.2 E 20 24 11 13 1018.0 1015.8 0.0
26/08:30pm 23.0 20.1 14.0 57 5.4 E 22 30 12 16 1018.3 1016.0 0.0
26/08:00pm 23.5 21.1 15.3 60 5.0 E 22 35 12 19 1018.6 1016.3 0.0
26/07:30pm 23.8 20.3 15.6 60 5.0 E 28 35 15 19 1017.5 1015.3 0.0
26/07:00pm 24.7 20.9 14.8 54 6.0 E 28 39 15 21 1016.9 1014.7 0.0
26/06:30pm 25.6 20.9 12.1 43 7.9 E 28 39 15 21 1016.4 1014.1 0.0
26/06:00pm 26.4 20.9 11.7 40 8.5 ESE 32 41 17 22 1015.9 1013.6 0.0
26/05:30pm 27.7 22.0 11.3 36 9.5 E 32 43 17 23 1014.9 1012.7 0.0
26/05:00pm 28.4 22.5 10.6 33 10.3 ESE 32 39 17 21 1014.6 1012.4 0.0
26/04:30pm 29.0 23.7 9.7 30 11.0 ESE 28 35 15 19 1014.6 1012.4 0.0
26/04:00pm 28.9 24.4 10.1 31 10.8 ESE 24 32 13 17 1014.9 1012.7 0.0
26/03:30pm 29.5 25.7 11.1 32 10.7 E 22 32 12 17 1014.9 1012.7 0.0
26/03:00pm 29.5 25.4 11.5 33 10.6 ESE 24 33 13 18 1015.1 1012.9 0.0
26/02:30pm 29.4 26.3 12.3 34 10.2 E 20 30 11 16 1015.4 1013.2 0.0
26/02:00pm 28.8 25.9 12.2 35 9.8 ESE 19 28 10 15 1016.0 1013.7 0.0
26/01:30pm 27.9 24.6 12.7 39 9.0 ESE 22 33 12 18 1016.3 1014.0 0.0
26/01:00pm 28.1 25.4 13.6 41 8.8 E 20 30 11 16 1016.7 1014.5 0.0
26/12:30pm 27.5 25.3 14.5 45 7.9 E 19 24 10 13 1017.0 1014.8 0.0
26/12:00pm 27.0 24.9 15.1 48 7.3 ESE 20 32 11 17 1017.3 1015.1 0.0
26/11:30am 26.2 23.9 14.6 48 7.1 E 20 35 11 19 1017.6 1015.4 0.0
26/11:00am 26.0 22.3 15.1 51 6.7 ESE 28 35 15 19 1017.7 1015.5 0.0
26/10:30am 26.1 23.6 15.2 51 6.7 ESE 22 35 12 19 1017.9 1015.7 0.0
26/10:00am 25.2 22.0 15.2 54 6.1 ESE 26 35 14 19 1017.8 1015.6 0.0
26/09:30am 23.5 19.5 14.2 56 5.6 E 28 37 15 20 1018.0 1015.8 0.0
26/09:00am 22.9 19.5 13.7 56 5.4 ESE 24 32 13 17 1018.2 1015.9 0.0
26/08:30am 22.2 20.3 14.3 61 4.7 ESE 17 26 9 14 1017.9 1015.7 0.0
26/08:00am 21.6 18.8 14.3 63 4.3 ESE 22 30 12 16 1017.5 1015.3 0.0
26/07:30am 21.0 19.5 14.2 65 4.0 ESE 15 20 8 11 1017.1 1014.9 0.0
26/07:00am 20.0 19.0 14.6 71 3.2 ESE 13 19 7 10 1016.9 1014.7 0.0
26/06:30am 18.4 19.3 14.1 76 2.5 NNE 2 9 1 5 1016.7 1014.5 0.0
26/06:00am 18.2 18.2 14.1 77 2.4 WSW 7 11 4 6 1016.8 1014.6 0.0
26/05:30am 17.7 17.3 14.0 79 2.2 ESE 9 13 5 7 1016.5 1014.3 0.0
26/05:00am 18.2 17.5 14.3 78 2.3 SE 11 15 6 8 1016.2 1013.9 0.0
26/04:30am 17.6 16.4 14.1 80 2.0 ENE 13 17 7 9 1015.3 1013.1 0.0
26/04:00am 18.1 18.9 13.8 76 2.5 NE 2 9 1 5 1015.7 1013.4 0.0
26/03:30am 18.0 17.8 13.7 76 2.5 SSE 7 13 4 7 1015.9 1013.6 0.0
26/03:00am 18.3 17.7 13.6 74 2.7 SE 9 13 5 7 1015.8 1013.5 0.0
26/02:30am 19.4 17.4 13.8 70 3.3 E 17 22 9 12 1015.7 1013.4 0.0
26/02:00am 20.2 17.9 14.1 68 3.6 E 19 28 10 15 1015.8 1013.5 0.0
26/01:30am 20.1 17.8 14.2 69 3.5 ESE 19 24 10 13 1015.8 1013.5 0.0
26/01:00am 19.7 18.2 14.3 71 3.2 E 15 17 8 9 1016.0 1013.7 0.0
26/12:30am 20.6 18.2 14.5 68 3.6 ESE 20 26 11 14 1016.2 1013.9 0.0
26/12:00am 21.0 17.3 15.1 69 3.5 E 28 37 15 20 1016.3 1014.0 0.0
 
Date/Time
EST
Temp
°C
App
Temp
°C
Dew
Point
°C
Rel
Hum
%
Delta-T
°C
Wind Press
QNH
hPa
Press
MSL
hPa
Rain since
9am
mm
Dir  Spd
km/h
Gust
km/h
Spd
kts
Gust
kts
25/11:30pm 21.4 17.9 15.5 69 3.6 E 28 37 15 20 1016.6 1014.4 0.0
25/11:00pm 21.8 18.1 15.9 69 3.6 E 30 41 16 22 1016.8 1014.6 0.0
25/10:30pm 22.2 19.3 16.2 69 3.7 E 26 41 14 22 1016.8 1014.6 0.0

Other Formats:

Comma delimited format used in spreadsheet applications
http://www.bom.gov.au/fwo/IDQ60801/IDQ60801.94552.axf

JavaScript Object Notation format (JSON) in row-major order
http://www.bom.gov.au/fwo/IDQ60801/IDQ60801.94552.json